CYMA

Mayo Airport

Mayo, , Canada
METAR CYMA 140100Z 00000KT 20SM FEW040 BKN180 BKN220 M25/M28 A2928 RMK SC2AS3CI2 SLP979
Observed Flight Rules
Dec-14 @ 01:00 UTC (59 minutes ago) Visual Flight Rules
Visibility Clouds
20 miles
  • Few at 4,000' AGL
  • Broken at 18,000' AGL
  • Broken at 22,000' AGL
Temperatures Readings
Current -25°C / -13°F
Dewpoint -28°C / -18°F
Humidity 76%
Altimeter 29.28" Hg
Pressure 997.9 hPa
Elevation 504
METAR CYMA 140100Z 00000KT 20SM FEW040 BKN180 BKN220 M25/M28 A2928 RMK SC2AS3CI2 SLP979
Observed Flight Rules
Dec-14 @ 01:00 UTC
(59 minutes ago)
VFR
Clouds
  • Few at 4,000' AGL
  • Broken at 18,000' AGL
  • Broken at 22,000' AGL
Temperature Dewpoint
-25°C / -13°F -28°C / -18°F
Humidity Altimeter Pressure
76% 29.28" Hg 997.9 hPa